Time;durP1;ratioP1;P1;durP2;ratioP2;P2;SDS_P1;SDS_P2;PMS_P1;PMS_P2;Temp;Humidity;BMP_temperature;BMP_pressure;BME280_temperature;BME280_humidity;BME280_pressure;Samples;Min_cycle;Max_cycle;Signal;HPM_P1;HPM_P2
2023/07/20 01:44:40;;;;;;;7.72;3.80;;;;;;;;;;6234814;22;20253;-92
2023/07/20 01:47:49;;;;;;;7.82;3.85;;;;;;;;;;6243877;23;20182;-90
2023/07/20 01:50:55;;;;;;;13.50;4.30;;;;;;;;;;6246065;22;20186;-89
2023/07/20 01:54:00;;;;;;;8.57;4.00;;;;;;;;;;6244578;22;20241;-91
2023/07/20 01:57:06;;;;;;;7.15;3.80;;;;;;;;;;6246641;22;20174;-90
2023/07/20 02:00:14;;;;;;;12.60;4.32;;;;;;;;;;6245408;22;20166;-89
2023/07/20 02:03:25;;;;;;;10.10;4.25;;;;;;;;;;6264863;23;20150;-93
2023/07/20 02:06:30;;;;;;;9.63;4.45;;;;;;;;;;6244705;23;20246;-89
2023/07/20 02:09:36;;;;;;;8.98;4.25;;;;;;;;;;6245098;23;20166;-89
2023/07/20 02:12:41;;;;;;;13.80;4.38;;;;;;;;;;6245287;22;20170;-88
2023/07/20 02:15:49;;;;;;;10.75;4.22;;;;;;;;;;6245551;22;20210;-90
2023/07/20 02:18:56;;;;;;;8.77;4.00;;;;;;;;;;6244887;23;20161;-90
2023/07/20 02:22:02;;;;;;;9.23;4.15;;;;;;;;;;6245233;23;20674;-90
2023/07/20 02:25:08;;;;;;;9.23;3.88;;;;;;;;;;6244893;22;20166;-90
2023/07/20 02:28:15;;;;;;;9.70;4.20;;;;;;;;;;6244649;22;20170;-91
2023/07/20 02:31:22;;;;;;;7.65;3.65;;;;;;;;;;6245835;22;20166;-91
2023/07/20 02:34:27;;;;;;;7.55;3.58;;;;;;;;;;6245816;23;20158;-90
2023/07/20 02:37:33;;;;;;;7.47;3.70;;;;;;;;;;6245865;23;20515;-90
2023/07/20 02:40:38;;;;;;;14.25;5.22;;;;;;;;;;6244500;23;20286;-91
2023/07/20 02:43:43;;;;;;;13.35;4.15;;;;;;;;;;6242714;23;20230;-91
2023/07/20 02:46:50;;;;;;;11.10;3.67;;;;;;;;;;6242033;22;20146;-90
2023/07/20 02:49:55;;;;;;;8.10;3.70;;;;;;;;;;6242546;22;20198;-92
2023/07/20 02:53:01;;;;;;;6.50;3.50;;;;;;;;;;6241805;23;20170;-92
2023/07/20 02:56:06;;;;;;;9.60;3.83;;;;;;;;;;6241410;23;20166;-91
2023/07/20 02:59:11;;;;;;;8.68;4.10;;;;;;;;;;6239132;23;20267;-91
2023/07/20 03:02:19;;;;;;;7.80;3.33;;;;;;;;;;6241759;22;20159;-92
2023/07/20 03:05:25;;;;;;;9.70;3.67;;;;;;;;;;6243363;22;20201;-92
2023/07/20 03:08:30;;;;;;;8.52;3.65;;;;;;;;;;6243061;23;20173;-90
2023/07/20 03:11:36;;;;;;;7.65;3.67;;;;;;;;;;6244748;23;20166;-93
2023/07/20 03:14:45;;;;;;;10.68;4.07;;;;;;;;;;6245150;22;20221;-90
2023/07/20 03:17:52;;;;;;;10.63;3.90;;;;;;;;;;6245845;22;20182;-89
2023/07/20 03:21:00;;;;;;;7.03;4.10;;;;;;;;;;6244615;22;20235;-90
2023/07/20 03:24:06;;;;;;;8.00;3.70;;;;;;;;;;6243995;22;20258;-91
2023/07/20 03:27:11;;;;;;;7.57;3.33;;;;;;;;;;6244385;23;20496;-91
2023/07/20 03:30:18;;;;;;;8.20;3.72;;;;;;;;;;6244012;22;20169;-93
2023/07/20 03:33:27;;;;;;;6.28;4.18;;;;;;;;;;6245200;22;20632;-90
2023/07/20 03:36:39;;;;;;;7.85;3.70;;;;;;;;;;6246485;22;20194;-91
2023/07/20 03:39:44;;;;;;;7.88;4.25;;;;;;;;;;6246255;23;20166;-91
2023/07/20 03:42:51;;;;;;;11.00;3.95;;;;;;;;;;6246880;23;20165;-91
2023/07/20 10:18:51;;;;;;;5.30;2.17;;;;;;;;;;6190044;22;1340925;-91
2023/07/20 10:21:58;;;;;;;3.70;1.83;;;;;;;;;;6274820;22;20215;-91
2023/07/20 10:25:04;;;;;;;4.35;2.00;;;;;;;;;;6273126;22;20184;-90
2023/07/20 10:28:11;;;;;;;4.20;1.60;;;;;;;;;;6272742;22;20239;-90
2023/07/20 10:31:19;;;;;;;6.40;1.75;;;;;;;;;;6272790;22;20165;-92
2023/07/20 10:34:26;;;;;;;5.53;1.98;;;;;;;;;;6274665;22;20480;-92
2023/07/20 10:41:49;;;;;;;6.53;1.98;;;;;;;;;;6293626;22;20149;-92
2023/07/20 10:44:56;;;;;;;6.35;2.00;;;;;;;;;;6274489;22;20208;-92
2023/07/20 10:48:19;;;;;;;9.02;3.15;;;;;;;;;;6273238;22;20166;-91
2023/07/20 10:51:25;;;;;;;7.90;1.98;;;;;;;;;;6272944;22;20230;-91
2023/07/20 10:54:51;;;;;;;8.90;2.00;;;;;;;;;;6273101;22;20490;-91
2023/07/20 10:58:11;;;;;;;11.07;2.03;;;;;;;;;;6275635;22;20205;-92
2023/07/20 11:01:18;;;;;;;10.23;1.92;;;;;;;;;;6274831;22;20165;-92
2023/07/20 11:04:39;;;;;;;6.72;2.10;;;;;;;;;;6273981;22;20170;-89
2023/07/20 11:07:47;;;;;;;7.95;1.90;;;;;;;;;;6274346;22;20168;-92
2023/07/20 11:11:22;;;;;;;5.93;1.73;;;;;;;;;;6276827;22;20161;-93
2023/07/20 11:14:31;;;;;;;6.78;2.00;;;;;;;;;;6277690;22;20161;-91
2023/07/20 11:17:40;;;;;;;3.60;2.10;;;;;;;;;;6274105;22;20219;-91
2023/07/20 11:24:09;;;;;;;4.43;1.70;;;;;;;;;;6274538;22;20161;-95
2023/07/20 11:27:14;;;;;;;5.53;1.90;;;;;;;;;;6272962;22;20169;-91
2023/07/20 11:30:19;;;;;;;5.20;1.60;;;;;;;;;;6275150;22;20180;-91
2023/07/20 11:33:25;;;;;;;6.63;1.83;;;;;;;;;;6272957;22;20156;-91
2023/07/20 11:37:06;;;;;;;2.72;1.60;;;;;;;;;;6275048;22;20200;-91
2023/07/20 11:43:37;;;;;;;3.42;1.70;;;;;;;;;;6271854;22;20158;-92
2023/07/20 11:46:45;;;;;;;7.28;1.90;;;;;;;;;;6269223;22;20499;-91
2023/07/20 11:49:54;;;;;;;8.00;1.92;;;;;;;;;;6269095;22;20169;-91
2023/07/20 11:52:59;;;;;;;4.05;1.50;;;;;;;;;;6270116;22;20193;-93
2023/07/20 11:56:06;;;;;;;5.10;1.77;;;;;;;;;;6287716;22;20177;-90
2023/07/20 11:59:11;;;;;;;5.70;1.88;;;;;;;;;;6267687;22;20169;-92
2023/07/20 12:02:16;;;;;;;3.15;1.42;;;;;;;;;;6269751;22;20165;-89
2023/07/20 12:05:31;;;;;;;4.30;1.75;;;;;;;;;;6272485;22;20165;-89
2023/07/20 12:08:37;;;;;;;7.07;1.70;;;;;;;;;;6274380;22;20599;-90
2023/07/20 12:11:44;;;;;;;4.05;1.60;;;;;;;;;;6271872;22;20176;-87
2023/07/20 12:14:49;;;;;;;5.35;1.50;;;;;;;;;;6273953;22;20165;-90
2023/07/20 12:17:55;;;;;;;2.92;1.58;;;;;;;;;;6273858;22;20520;-93
2023/07/20 12:21:01;;;;;;;4.78;1.40;;;;;;;;;;6274994;22;20356;-89
2023/07/20 12:24:08;;;;;;;3.50;1.80;;;;;;;;;;6275540;22;20164;-90
2023/07/20 12:27:17;;;;;;;4.60;1.70;;;;;;;;;;6274709;22;20160;-90
2023/07/20 12:30:26;;;;;;;7.43;1.58;;;;;;;;;;6274397;22;20169;-91
2023/07/20 12:33:31;;;;;;;3.33;1.67;;;;;;;;;;6275003;22;20189;-90
2023/07/20 12:36:42;;;;;;;3.60;1.55;;;;;;;;;;6273364;22;20216;-90
2023/07/20 12:39:48;;;;;;;3.58;1.60;;;;;;;;;;6275854;22;20604;-87
2023/07/20 12:42:55;;;;;;;6.55;1.70;;;;;;;;;;6272555;22;20398;-92
2023/07/20 12:45:59;;;;;;;2.50;1.30;;;;;;;;;;6275677;22;20536;-90
2023/07/20 12:49:05;;;;;;;8.00;1.60;;;;;;;;;;6277416;22;20181;-90
2023/07/20 12:52:10;;;;;;;5.00;1.42;;;;;;;;;;6273960;22;20172;-91
2023/07/20 12:55:15;;;;;;;5.70;1.65;;;;;;;;;;6273705;22;20220;-89
2023/07/20 12:58:23;;;;;;;4.00;1.70;;;;;;;;;;6272806;22;20166;-89
2023/07/20 13:01:30;;;;;;;2.30;1.50;;;;;;;;;;6274313;22;20502;-93
2023/07/20 13:04:35;;;;;;;2.13;1.55;;;;;;;;;;6274050;22;20233;-90
2023/07/20 13:07:40;;;;;;;9.02;2.03;;;;;;;;;;6273920;22;20180;-92
2023/07/20 13:10:46;;;;;;;4.28;1.63;;;;;;;;;;6272760;22;20179;-88
2023/07/20 13:13:53;;;;;;;3.67;1.60;;;;;;;;;;6272244;22;20169;-89
2023/07/20 13:16:57;;;;;;;3.47;1.73;;;;;;;;;;6274777;22;20265;-92
2023/07/20 13:20:04;;;;;;;4.00;1.80;;;;;;;;;;6274343;22;20484;-88
2023/07/20 13:23:10;;;;;;;3.30;1.70;;;;;;;;;;6274432;22;20591;-93
2023/07/20 13:26:15;;;;;;;3.70;1.40;;;;;;;;;;6272458;22;20161;-91
2023/07/20 13:29:22;;;;;;;4.65;1.58;;;;;;;;;;6273946;22;20173;-91
2023/07/20 13:32:29;;;;;;;3.00;1.50;;;;;;;;;;6273194;22;20152;-94
2023/07/20 13:35:35;;;;;;;3.35;1.67;;;;;;;;;;6276215;22;20193;-90
2023/07/20 13:38:43;;;;;;;4.78;1.73;;;;;;;;;;6276484;22;20212;-90
2023/07/20 13:41:49;;;;;;;6.63;1.75;;;;;;;;;;6277008;22;20154;-89
2023/07/20 13:44:55;;;;;;;5.55;1.67;;;;;;;;;;6274357;22;20181;-90
2023/07/20 13:48:01;;;;;;;3.80;1.70;;;;;;;;;;6276493;22;20212;-91
2023/07/20 13:51:06;;;;;;;5.82;1.67;;;;;;;;;;6275959;22;20164;-91
2023/07/20 13:54:11;;;;;;;2.13;1.20;;;;;;;;;;6273284;22;20170;-90
2023/07/20 13:57:17;;;;;;;4.47;1.48;;;;;;;;;;6275788;22;20224;-90
2023/07/20 14:00:26;;;;;;;4.47;1.52;;;;;;;;;;6276884;22;20700;-91
2023/07/20 14:03:31;;;;;;;4.20;1.58;;;;;;;;;;6276314;22;20173;-88
2023/07/20 14:06:41;;;;;;;4.57;1.50;;;;;;;;;;6277337;22;20168;-90
2023/07/20 14:09:46;;;;;;;6.40;1.70;;;;;;;;;;6273560;22;20165;-91
2023/07/20 14:12:51;;;;;;;2.63;1.70;;;;;;;;;;6274772;22;20495;-93
2023/07/20 14:16:09;;;;;;;4.80;1.67;;;;;;;;;;6275860;22;20172;-91
2023/07/20 14:19:14;;;;;;;4.50;1.70;;;;;;;;;;6276241;22;20196;-89
2023/07/20 14:22:20;;;;;;;4.75;2.00;;;;;;;;;;6272577;22;20168;-90
2023/07/20 14:25:25;;;;;;;4.65;1.45;;;;;;;;;;6274172;22;20301;-90
2023/07/20 14:28:31;;;;;;;5.32;1.60;;;;;;;;;;6269889;22;20169;-94
2023/07/20 14:31:38;;;;;;;9.80;1.52;;;;;;;;;;6272554;22;20161;-90
2023/07/20 14:34:44;;;;;;;2.47;1.58;;;;;;;;;;6275144;22;20161;-88
2023/07/20 14:37:50;;;;;;;3.83;1.63;;;;;;;;;;6270421;22;20260;-90
2023/07/20 14:41:00;;;;;;;4.22;1.40;;;;;;;;;;6274308;22;20197;-92
2023/07/20 14:44:10;;;;;;;6.10;1.80;;;;;;;;;;6272776;22;20165;-92
2023/07/20 14:47:17;;;;;;;2.53;1.52;;;;;;;;;;6276261;22;20173;-94
2023/07/20 14:50:24;;;;;;;4.63;1.70;;;;;;;;;;6274561;22;20172;-89
2023/07/20 14:53:31;;;;;;;3.42;1.48;;;;;;;;;;6274659;22;20165;-91
2023/07/20 14:56:37;;;;;;;3.35;1.58;;;;;;;;;;6271132;22;20615;-89
2023/07/20 14:59:43;;;;;;;6.45;1.50;;;;;;;;;;6273047;22;20252;-90
2023/07/20 15:02:55;;;;;;;6.60;1.52;;;;;;;;;;6256200;22;20161;-90
2023/07/20 15:06:01;;;;;;;7.78;1.98;;;;;;;;;;6275957;22;20213;-93
2023/07/20 15:09:06;;;;;;;3.72;2.25;;;;;;;;;;6274824;22;20152;-91
2023/07/20 15:12:11;;;;;;;5.13;2.70;;;;;;;;;;6276376;22;20222;-89
2023/07/20 15:15:17;;;;;;;6.40;1.70;;;;;;;;;;6274415;22;20297;-89
2023/07/20 15:18:24;;;;;;;4.50;1.60;;;;;;;;;;6276929;22;20176;-89
2023/07/20 15:21:30;;;;;;;4.93;1.55;;;;;;;;;;6278153;22;20185;-90
2023/07/20 15:24:36;;;;;;;3.30;1.45;;;;;;;;;;6279697;22;20581;-91
2023/07/20 15:27:43;;;;;;;4.13;1.63;;;;;;;;;;6274093;22;20170;-90
2023/07/20 15:30:49;;;;;;;6.20;1.80;;;;;;;;;;6275728;22;20190;-90
2023/07/20 15:33:57;;;;;;;2.40;1.30;;;;;;;;;;6275568;22;20188;-89
2023/07/20 15:37:05;;;;;;;2.50;1.40;;;;;;;;;;6273907;22;20209;-89
2023/07/20 15:40:11;;;;;;;4.95;1.55;;;;;;;;;;6275059;22;20196;-89
2023/07/20 15:43:17;;;;;;;3.50;1.70;;;;;;;;;;6274750;22;20165;-90
2023/07/20 15:46:46;;;;;;;1.77;1.40;;;;;;;;;;6273017;22;20165;-89
2023/07/20 15:49:52;;;;;;;4.97;1.70;;;;;;;;;;6270859;22;20189;-91
2023/07/20 15:52:57;;;;;;;3.10;1.63;;;;;;;;;;6273685;22;20265;-93
2023/07/20 15:56:02;;;;;;;4.78;1.60;;;;;;;;;;6274079;22;20197;-90
2023/07/20 15:59:08;;;;;;;7.40;1.58;;;;;;;;;;6273802;22;20197;-90
2023/07/20 16:02:15;;;;;;;5.13;1.80;;;;;;;;;;6273273;22;20220;-89
2023/07/20 16:05:22;;;;;;;2.70;1.58;;;;;;;;;;6274582;22;20369;-89
2023/07/20 16:08:27;;;;;;;5.07;1.58;;;;;;;;;;6274696;22;20202;-89
2023/07/20 16:11:32;;;;;;;4.95;1.60;;;;;;;;;;6276380;22;20165;-91
2023/07/20 16:14:38;;;;;;;3.28;1.60;;;;;;;;;;6275317;22;20174;-91
2023/07/20 16:17:43;;;;;;;4.18;1.88;;;;;;;;;;6274188;22;20201;-89
2023/07/20 16:20:51;;;;;;;4.20;1.52;;;;;;;;;;6274346;22;20161;-89
2023/07/20 16:23:56;;;;;;;3.10;1.60;;;;;;;;;;6275325;22;20169;-91
2023/07/20 16:27:01;;;;;;;2.63;1.42;;;;;;;;;;6277378;22;20253;-91
2023/07/20 16:30:07;;;;;;;3.10;1.60;;;;;;;;;;6275601;22;20169;-89
2023/07/20 16:33:13;;;;;;;3.08;1.75;;;;;;;;;;6274424;22;20169;-91
2023/07/20 16:36:23;;;;;;;6.20;1.83;;;;;;;;;;6275045;22;20246;-91
2023/07/20 16:39:34;;;;;;;4.32;1.98;;;;;;;;;;6275736;22;20174;-90
2023/07/20 16:42:41;;;;;;;6.78;1.50;;;;;;;;;;6277395;22;20166;-89
2023/07/20 16:45:46;;;;;;;5.78;1.58;;;;;;;;;;6275384;22;20605;-90
2023/07/20 16:48:53;;;;;;;5.20;1.95;;;;;;;;;;6273501;22;20170;-91
2023/07/20 16:51:58;;;;;;;3.00;1.73;;;;;;;;;;6274065;22;20150;-90
2023/07/20 16:55:06;;;;;;;3.20;1.50;;;;;;;;;;6275124;22;20166;-91
2023/07/20 16:58:12;;;;;;;5.38;1.70;;;;;;;;;;6276608;22;20383;-92
2023/07/20 17:01:17;;;;;;;3.55;2.05;;;;;;;;;;6276772;22;20209;-91
2023/07/20 17:04:23;;;;;;;3.67;1.60;;;;;;;;;;6276248;22;20184;-92
2023/07/20 17:07:30;;;;;;;4.88;1.63;;;;;;;;;;6281909;22;20158;-90
2023/07/20 17:10:37;;;;;;;4.82;1.60;;;;;;;;;;6276256;22;20204;-92
2023/07/20 17:13:42;;;;;;;12.30;1.48;;;;;;;;;;6278022;22;20209;-90
2023/07/20 17:16:48;;;;;;;3.65;1.45;;;;;;;;;;6275197;22;20274;-91
2023/07/20 17:19:53;;;;;;;6.63;1.73;;;;;;;;;;6274122;22;20219;-89
2023/07/20 17:22:58;;;;;;;3.83;1.52;;;;;;;;;;6273929;22;20602;-90
2023/07/20 17:26:11;;;;;;;4.22;1.88;;;;;;;;;;6275107;22;20166;-92
2023/07/20 17:32:36;;;;;;;4.75;1.67;;;;;;;;;;6275479;22;20181;-90
2023/07/20 17:35:42;;;;;;;8.70;2.40;;;;;;;;;;6274800;22;20157;-91
2023/07/20 17:38:52;;;;;;;3.88;1.40;;;;;;;;;;6275717;22;20289;-90
2023/07/20 17:41:59;;;;;;;3.83;2.00;;;;;;;;;;6277066;22;20178;-91
2023/07/20 17:45:05;;;;;;;4.50;1.58;;;;;;;;;;6277611;22;20192;-90
2023/07/20 17:48:39;;;;;;;3.90;1.65;;;;;;;;;;6275906;22;20161;-89
2023/07/20 17:51:46;;;;;;;3.17;1.50;;;;;;;;;;6276795;22;20162;-89
2023/07/20 17:54:51;;;;;;;3.50;1.92;;;;;;;;;;6276471;22;20210;-90
2023/07/20 17:57:58;;;;;;;5.10;1.75;;;;;;;;;;6275102;22;20657;-90
2023/07/20 18:01:04;;;;;;;8.02;1.80;;;;;;;;;;6274595;22;20165;-89
2023/07/20 18:04:09;;;;;;;4.28;1.70;;;;;;;;;;6275597;22;20166;-91
2023/07/20 18:07:14;;;;;;;5.45;1.77;;;;;;;;;;6273925;22;20173;-90
2023/07/20 18:10:20;;;;;;;7.70;1.60;;;;;;;;;;6275761;22;20162;-92
2023/07/20 18:13:27;;;;;;;4.53;2.00;;;;;;;;;;6275868;22;20212;-91
2023/07/20 18:16:33;;;;;;;5.07;1.80;;;;;;;;;;6276007;22;20212;-90
2023/07/20 18:19:38;;;;;;;3.33;1.77;;;;;;;;;;6275041;22;20248;-89
2023/07/20 18:22:44;;;;;;;5.18;1.83;;;;;;;;;;6275623;22;20165;-92
2023/07/20 18:25:50;;;;;;;4.85;1.80;;;;;;;;;;6276693;22;20617;-93
2023/07/20 18:28:57;;;;;;;5.40;1.85;;;;;;;;;;6274347;22;20169;-92
2023/07/20 18:35:54;;;;;;;5.97;2.20;;;;;;;;;;6274023;22;20237;-89
2023/07/20 18:39:03;;;;;;;6.63;1.70;;;;;;;;;;6273540;22;20165;-91
2023/07/20 18:42:08;;;;;;;5.78;1.67;;;;;;;;;;6271043;22;20193;-90
2023/07/20 18:45:15;;;;;;;4.20;1.60;;;;;;;;;;6273803;22;20189;-91
2023/07/20 18:48:24;;;;;;;10.07;1.75;;;;;;;;;;6272643;22;20149;-90
2023/07/20 18:51:29;;;;;;;5.03;1.63;;;;;;;;;;6273466;22;20233;-89
2023/07/20 18:54:34;;;;;;;6.63;2.00;;;;;;;;;;6273149;22;20165;-90
2023/07/20 18:57:40;;;;;;;4.70;1.63;;;;;;;;;;6273040;22;20189;-89
2023/07/20 19:00:47;;;;;;;3.72;1.83;;;;;;;;;;6273340;22;20162;-92
2023/07/20 19:03:51;;;;;;;7.95;1.88;;;;;;;;;;6274479;22;20192;-89
2023/07/20 19:06:57;;;;;;;5.15;1.50;;;;;;;;;;6275023;22;20173;-89
2023/07/20 19:10:04;;;;;;;9.38;2.03;;;;;;;;;;6274303;22;20221;-90
2023/07/20 19:13:09;;;;;;;4.82;1.70;;;;;;;;;;6274169;22;20149;-89
2023/07/20 19:16:17;;;;;;;7.75;2.00;;;;;;;;;;6274746;22;20235;-90
2023/07/20 19:19:32;;;;;;;8.43;1.80;;;;;;;;;;6277960;22;20267;-92
2023/07/20 19:22:37;;;;;;;5.82;1.80;;;;;;;;;;6274701;22;20518;-90
2023/07/20 19:25:42;;;;;;;6.38;2.00;;;;;;;;;;6273217;22;20169;-89
2023/07/20 19:28:49;;;;;;;6.13;2.10;;;;;;;;;;6274347;22;20169;-90
2023/07/20 19:35:35;;;;;;;9.90;1.60;;;;;;;;;;6275118;22;20182;-88
2023/07/20 19:38:50;;;;;;;3.95;1.60;;;;;;;;;;6273771;22;20194;-89
2023/07/20 19:41:56;;;;;;;4.65;1.63;;;;;;;;;;6275258;22;20616;-90
2023/07/20 19:48:52;;;;;;;3.30;1.50;;;;;;;;;;6272093;22;20178;-91
2023/07/20 19:51:58;;;;;;;7.05;1.90;;;;;;;;;;6276746;22;20166;-90
2023/07/20 19:55:05;;;;;;;6.43;1.80;;;;;;;;;;6275640;22;20169;-91
2023/07/20 19:58:10;;;;;;;12.70;2.15;;;;;;;;;;6276373;22;20189;-91
2023/07/20 20:01:16;;;;;;;5.63;2.00;;;;;;;;;;6274521;22;20284;-90
2023/07/20 20:04:24;;;;;;;2.90;1.88;;;;;;;;;;6273347;22;20161;-90
2023/07/20 20:07:29;;;;;;;5.15;1.40;;;;;;;;;;6272593;22;20204;-87
2023/07/20 20:10:35;;;;;;;5.05;2.47;;;;;;;;;;6273555;22;20234;-92
2023/07/20 20:13:42;;;;;;;4.30;1.77;;;;;;;;;;6274284;22;20166;-90
2023/07/20 20:16:48;;;;;;;3.65;2.17;;;;;;;;;;6275050;22;20234;-90
2023/07/20 20:19:55;;;;;;;7.38;1.73;;;;;;;;;;6276504;22;20178;-91
2023/07/20 20:23:00;;;;;;;4.40;1.70;;;;;;;;;;6274146;22;20217;-89
2023/07/20 20:26:05;;;;;;;6.13;1.95;;;;;;;;;;6273216;22;20166;-90
2023/07/20 20:29:11;;;;;;;2.28;1.63;;;;;;;;;;6275553;22;20204;-90
2023/07/20 20:32:28;;;;;;;6.47;2.30;;;;;;;;;;6275810;22;20169;-92
2023/07/20 20:35:35;;;;;;;4.28;1.98;;;;;;;;;;6276959;22;20246;-89
2023/07/20 20:38:40;;;;;;;5.82;1.80;;;;;;;;;;6278107;22;20190;-92
2023/07/20 20:41:47;;;;;;;4.60;2.20;;;;;;;;;;6276188;22;20571;-88
2023/07/20 20:44:52;;;;;;;7.45;2.08;;;;;;;;;;6278351;22;20162;-91
2023/07/20 20:47:59;;;;;;;5.80;2.40;;;;;;;;;;6275674;22;20221;-90
2023/07/20 20:51:06;;;;;;;9.32;2.30;;;;;;;;;;6276345;22;20165;-91
2023/07/20 20:54:12;;;;;;;16.63;6.88;;;;;;;;;;6278243;22;20170;-89
2023/07/20 20:57:17;;;;;;;10.43;2.40;;;;;;;;;;6278614;22;20194;-91
2023/07/20 21:00:24;;;;;;;8.45;2.13;;;;;;;;;;6275526;22;20281;-92
2023/07/20 21:03:30;;;;;;;5.22;2.08;;;;;;;;;;6275494;22;20186;-92
2023/07/20 21:06:37;;;;;;;7.20;2.55;;;;;;;;;;6293471;22;20165;-90
2023/07/20 21:09:43;;;;;;;6.35;2.30;;;;;;;;;;6272491;22;20293;-89
2023/07/20 21:12:49;;;;;;;8.32;2.20;;;;;;;;;;6272252;22;20678;-89
2023/07/20 21:15:54;;;;;;;5.05;2.30;;;;;;;;;;6275190;22;20166;-90
2023/07/20 21:18:59;;;;;;;5.75;1.98;;;;;;;;;;6272926;22;20228;-90
2023/07/20 21:22:06;;;;;;;8.48;2.58;;;;;;;;;;6276770;22;20214;-90
2023/07/20 21:25:22;;;;;;;8.15;2.92;;;;;;;;;;6276412;22;20189;-90
2023/07/20 21:28:30;;;;;;;7.00;3.00;;;;;;;;;;6257783;22;20170;-91
2023/07/20 21:32:04;;;;;;;7.80;3.17;;;;;;;;;;6275531;22;20153;-90
2023/07/20 21:35:09;;;;;;;4.97;2.75;;;;;;;;;;6272699;22;20496;-91
2023/07/20 21:38:16;;;;;;;6.80;2.95;;;;;;;;;;6273286;22;20265;-90
2023/07/20 21:41:21;;;;;;;7.25;2.75;;;;;;;;;;6277091;22;20169;-92
2023/07/20 21:44:28;;;;;;;7.70;3.20;;;;;;;;;;6281706;22;20162;-89
2023/07/20 21:47:39;;;;;;;5.22;3.08;;;;;;;;;;6279561;22;20170;-90
2023/07/20 21:50:48;;;;;;;10.48;3.22;;;;;;;;;;6277063;22;20239;-91
2023/07/20 21:53:55;;;;;;;4.47;2.47;;;;;;;;;;6275803;22;20169;-90
2023/07/20 21:57:01;;;;;;;6.45;2.95;;;;;;;;;;6275089;22;20487;-91
2023/07/20 22:00:09;;;;;;;8.43;2.80;;;;;;;;;;6273226;22;20169;-90
2023/07/20 22:03:33;;;;;;;6.47;2.65;;;;;;;;;;6293208;22;20186;-90
2023/07/20 22:06:45;;;;;;;9.00;2.92;;;;;;;;;;6275482;22;20178;-90
2023/07/20 22:09:52;;;;;;;4.68;2.65;;;;;;;;;;6276424;22;20173;-93
2023/07/20 22:12:58;;;;;;;7.75;2.50;;;;;;;;;;6274091;22;20166;-90
2023/07/20 22:16:03;;;;;;;7.22;2.72;;;;;;;;;;6274181;22;20208;-91
2023/07/20 22:19:09;;;;;;;5.57;2.50;;;;;;;;;;6272316;22;20756;-90
2023/07/20 22:22:15;;;;;;;7.72;2.78;;;;;;;;;;6274247;22;20173;-89
2023/07/20 22:25:22;;;;;;;4.40;2.63;;;;;;;;;;6272671;22;20394;-90
2023/07/20 22:28:27;;;;;;;6.45;2.58;;;;;;;;;;6271404;22;20166;-91
2023/07/20 22:31:32;;;;;;;6.63;2.83;;;;;;;;;;6272847;22;20177;-90
2023/07/20 22:34:38;;;;;;;5.68;2.60;;;;;;;;;;6272340;22;20169;-92
2023/07/20 22:37:43;;;;;;;9.13;2.92;;;;;;;;;;6271998;22;20209;-89
2023/07/20 22:40:50;;;;;;;6.95;3.30;;;;;;;;;;6270528;22;20157;-88
2023/07/20 22:43:55;;;;;;;6.55;2.78;;;;;;;;;;6271518;22;20146;-90
2023/07/20 22:47:03;;;;;;;4.97;2.80;;;;;;;;;;6272231;22;20237;-89
2023/07/20 22:50:08;;;;;;;10.98;2.95;;;;;;;;;;6270238;22;20244;-90
2023/07/20 22:53:13;;;;;;;5.18;2.33;;;;;;;;;;6268228;22;20169;-90
2023/07/20 22:56:24;;;;;;;6.32;2.20;;;;;;;;;;6269448;22;20166;-92
2023/07/20 22:59:29;;;;;;;6.32;2.35;;;;;;;;;;6271521;22;20177;-93
2023/07/20 23:02:36;;;;;;;5.65;2.50;;;;;;;;;;6271535;22;20640;-89
2023/07/20 23:05:46;;;;;;;8.05;2.70;;;;;;;;;;6273530;22;20732;-92
2023/07/20 23:08:52;;;;;;;4.38;2.25;;;;;;;;;;6271224;22;20169;-91
2023/07/20 23:12:00;;;;;;;7.55;2.20;;;;;;;;;;6271531;22;20240;-88
2023/07/20 23:15:07;;;;;;;6.38;1.95;;;;;;;;;;6272565;22;20226;-91
2023/07/20 23:18:13;;;;;;;9.57;2.58;;;;;;;;;;6271732;22;20224;-91
2023/07/20 23:21:18;;;;;;;7.80;2.30;;;;;;;;;;6272400;22;20166;-89
2023/07/20 23:24:23;;;;;;;6.53;2.60;;;;;;;;;;6271600;22;20161;-90
2023/07/20 23:27:30;;;;;;;6.65;2.90;;;;;;;;;;6272305;22;20174;-91
2023/07/20 23:30:36;;;;;;;8.15;3.15;;;;;;;;;;6273493;22;20209;-90
2023/07/20 23:33:41;;;;;;;8.38;2.80;;;;;;;;;;6271294;22;20185;-92
2023/07/20 23:36:45;;;;;;;9.52;3.00;;;;;;;;;;6271595;22;20293;-90
2023/07/20 23:39:52;;;;;;;7.90;3.15;;;;;;;;;;6271006;22;20197;-89
2023/07/20 23:42:58;;;;;;;6.07;3.00;;;;;;;;;;6272276;22;20169;-90
2023/07/20 23:46:04;;;;;;;5.78;2.58;;;;;;;;;;6273860;22;20172;-90
2023/07/20 23:49:09;;;;;;;5.43;2.60;;;;;;;;;;6271863;22;20170;-90
2023/07/20 23:52:18;;;;;;;9.43;2.55;;;;;;;;;;6274265;22;20220;-91
2023/07/20 23:55:25;;;;;;;7.40;2.90;;;;;;;;;;6273322;22;20491;-88
2023/07/20 23:58:33;;;;;;;7.45;2.70;;;;;;;;;;6272397;22;20526;-89
